Hlavní strana
METAR-TAF:

METAR-TAF

Letiště :

Kirkenes, Norsko

zeměpisná šířka: 69-44N, zeměpisná délka: 029-54E, výška: 9 m

Aktuální stav počasí

Zpráva byla vytvořena před 16 minutami, v 15:50 UTC
Západojihozápadní vítr 16 kt
Teplota 3°C
Vlhkost vzduchu 81%
Tlak 997 hPa
Viditelnost 10 km a více
Polojasno ve výšce 1900 ft
Oblačno až skoro zataženo ve výšce 3500 ft
slabý déšť

METAR: ENKR 281550Z 25016KT 9999 -RA SCT019 BKN035 03/M00 Q0997 RMK WIND 731FT 25033KT

Čas: 17:06 (16:06 UTC)

Předpověď počasí

Zpráva byla vytvořena před 2 hodinami a 6 minutami, v 14:00 UTC
Předpověď platná od 28 v 15 UTC do 28 v 24 UTC
Jihozápadní vítr 15 kt
Viditelnost 10 km a více
Skoro jasno ve výšce 1500 ft
Oblačno až skoro zataženo ve výšce 4000 ft
Dočasný
od 28 v 15 UTC do 28 v 21 UTC
Viditelnost: 4000 m
Oblačno až skoro zataženo ve výšce 1200 ft
dešťové přeháňky

TAF: ENKR 281400Z 2815/2824 22015KT 9999 FEW015 BKN040 TEMPO 2815/2821 4000 SHRA BKN012

Stav a předpovědi počasí z více než 4 000 letišť (zprávy METAR a TAF).

Červené a žluté tečky na mapě představují dostupné meteorologické stanice.

Když kurzor umístíte na tečku, zobrazí se název stanice.

Pak kliknutím zobrazíte stav a předpověď počasí.

Chcete-li změnit mapu, kliknutím na zelené tlačítko se znaménkem +mapu přiblížíte, kliknutím na zelené tlačítko se znaménkem – mapu oddálíte a kliknutím na zelené šipky přejdete na sousední mapy.


METAR-TAF: